Pagrindinis puslapis
METAR-TAF:

METAR-TAF

Oro uostai :

Ronebis, Švedija

platuma: 56-16N, ilguma: 015-17E, Aukštis: 58 m

Dabartinis oras

Ataskaita buvo paskelbta 32 minutes, ne 02:50 UTC
Ramus vėjas
Temperatūra 12°C
Drėgmė 100%
Slėgis 1026 hPa
Matomumas 10 km arba daugiau

METAR: ESDF 240250Z AUTO 00000KT 9999 NCD 12/12 Q1026

Laikas: 05:22 (03:22 UTC)

Prognozė

Ataskaita buvo paskelbta 9 valandos ir 52 minutes, ne 17:30 UTC
Prognozė galioja nuo 23 metu 18 UTC su 23 metu 21 UTC
Vėjas 4 kt iš Pietvakarių
Matomumas 10 km arba daugiau
nėra debesų žemiau 1500 m ir nėra kamuolinių lietaus debesų

TAF: ESDF 231730Z 2318/2321 23004KT CAVOK

Orai ataskaitas ir orų prognozės (METAR, TAF).

turimą stotys yra geltonos ir raudonos taškus žemėlapyje.

Perkelti pele per norėdami pamatyti stoties vardą.

Tada spustelėkite, norėdami matyti oro stebėjimo ir prognozės.

Norėdami pakeisti žemėlapį: spustelėkite ant žalios mygtukų su juodo kryžiaus žemyn,; žalią mygtuką su brūkšneliu, jei norite nutolinti; arba žalių rodyklių gretimoms žemėlapius.


METAR-TAF: